Time;durP1;ratioP1;P1;durP2;ratioP2;P2;SDS_P1;SDS_P2;PMS_P1;PMS_P2;Temp;Humidity;BMP_temperature;BMP_pressure;BME280_temperature;BME280_humidity;BME280_pressure;Samples;Min_cycle;Max_cycle;Signal;HPM_P1;HPM_P2
2022/04/28 00:00:06;;;;;;;10.52;5.85;;;;;;;;;;4861422;29;20185;-75
2022/04/28 00:02:33;;;;;;;8.48;5.88;;;;;;;;;;4861243;29;20605;-75
2022/04/28 00:04:59;;;;;;;9.77;7.25;;;;;;;;;;4860573;29;20211;-74
2022/04/28 00:07:25;;;;;;;8.47;6.43;;;;;;;;;;4861127;29;20200;-74
2022/04/28 00:09:51;;;;;;;9.30;6.63;;;;;;;;;;4843692;29;20446;-74
2022/04/28 00:12:17;;;;;;;9.27;7.07;;;;;;;;;;4841498;29;20422;-75
2022/04/28 00:14:43;;;;;;;11.18;7.20;;;;;;;;;;4841936;29;20453;-75
2022/04/28 00:17:10;;;;;;;10.83;6.40;;;;;;;;;;4842383;29;20579;-75
2022/04/28 00:19:36;;;;;;;10.32;6.43;;;;;;;;;;4857009;29;20487;-75
2022/04/28 00:22:02;;;;;;;7.73;5.90;;;;;;;;;;4861155;29;20184;-74
2022/04/28 00:24:28;;;;;;;9.15;7.30;;;;;;;;;;4875023;29;20451;-74
2022/04/28 00:26:54;;;;;;;8.33;6.30;;;;;;;;;;4875183;29;20194;-75
2022/04/28 00:29:21;;;;;;;9.00;6.10;;;;;;;;;;4873402;29;21067;-74
2022/04/28 00:31:47;;;;;;;13.40;7.25;;;;;;;;;;4860860;29;20845;-75
2022/04/28 00:34:13;;;;;;;13.23;6.57;;;;;;;;;;4860738;29;20203;-74
2022/04/28 00:36:39;;;;;;;10.97;7.50;;;;;;;;;;4860916;29;20190;-74
2022/04/28 00:39:05;;;;;;;8.50;6.80;;;;;;;;;;4858470;29;20445;-74
2022/04/28 00:41:31;;;;;;;10.03;7.03;;;;;;;;;;4860933;29;20521;-75
2022/04/28 00:43:57;;;;;;;7.88;7.07;;;;;;;;;;4860497;29;20509;-74
2022/04/28 00:46:23;;;;;;;10.85;7.82;;;;;;;;;;4860847;29;20247;-75
2022/04/28 00:51:35;;;;;;;9.35;7.05;;;;;;;;;;4861261;29;20748;-75
2022/04/28 00:54:02;;;;;;;7.90;7.07;;;;;;;;;;4860561;29;20210;-75
2022/04/28 00:56:28;;;;;;;10.13;7.65;;;;;;;;;;4874945;29;20185;-74
2022/04/28 00:58:55;;;;;;;11.10;7.47;;;;;;;;;;4861641;29;20222;-74
2022/04/28 01:01:21;;;;;;;11.50;7.03;;;;;;;;;;4864414;29;20242;-74
2022/04/28 01:03:47;;;;;;;9.57;7.35;;;;;;;;;;4864084;29;20294;-73
2022/04/28 01:06:13;;;;;;;9.95;7.30;;;;;;;;;;4878473;29;20272;-74
2022/04/28 01:08:40;;;;;;;13.07;7.72;;;;;;;;;;4864305;29;20178;-74
2022/04/28 01:11:06;;;;;;;10.48;6.65;;;;;;;;;;4864147;29;20215;-77
2022/04/28 01:13:32;;;;;;;13.63;7.30;;;;;;;;;;4863772;29;20214;-75
2022/04/28 01:15:58;;;;;;;12.52;7.03;;;;;;;;;;4864393;29;20185;-74
2022/04/28 01:18:24;;;;;;;11.25;7.57;;;;;;;;;;4878267;29;20760;-74
2022/04/28 01:20:50;;;;;;;9.93;7.17;;;;;;;;;;4864377;29;20195;-75
2022/04/28 01:23:18;;;;;;;10.15;7.38;;;;;;;;;;4877958;29;20444;-75
2022/04/28 01:25:44;;;;;;;9.38;7.38;;;;;;;;;;4864080;29;20216;-75
2022/04/28 01:28:10;;;;;;;10.95;7.70;;;;;;;;;;4863905;29;20183;-75
2022/04/28 01:30:37;;;;;;;12.10;7.50;;;;;;;;;;4863723;29;20196;-74
2022/04/28 01:33:03;;;;;;;12.80;7.50;;;;;;;;;;4863463;29;20251;-74
2022/04/28 01:35:29;;;;;;;9.45;8.02;;;;;;;;;;4878022;29;20241;-74
2022/04/28 01:37:55;;;;;;;11.80;6.80;;;;;;;;;;4863841;29;20296;-75
2022/04/28 01:40:21;;;;;;;12.52;7.35;;;;;;;;;;4863536;29;20197;-75
2022/04/28 01:42:50;;;;;;;10.15;7.38;;;;;;;;;;4863698;29;20650;-74
2022/04/28 01:45:17;;;;;;;11.80;8.00;;;;;;;;;;4863461;29;20217;-74
2022/04/28 01:47:43;;;;;;;8.95;7.05;;;;;;;;;;4863748;29;20194;-75
2022/04/28 01:50:11;;;;;;;11.98;7.15;;;;;;;;;;4863371;29;20298;-75
2022/04/28 01:55:22;;;;;;;8.85;7.60;;;;;;;;;;4863760;29;20206;-75
2022/04/28 01:57:48;;;;;;;12.02;8.05;;;;;;;;;;4863253;29;20561;-75
2022/04/28 02:00:15;;;;;;;10.73;7.43;;;;;;;;;;4877374;29;20183;-75
2022/04/28 02:02:42;;;;;;;14.43;7.35;;;;;;;;;;4863285;29;20182;-75
2022/04/28 02:05:09;;;;;;;12.05;7.50;;;;;;;;;;4862832;29;20206;-75
2022/04/28 02:07:35;;;;;;;11.52;7.15;;;;;;;;;;4863009;29;20558;-75
2022/04/28 02:10:02;;;;;;;11.98;7.30;;;;;;;;;;4862787;29;20197;-75
2022/04/28 02:12:28;;;;;;;10.15;8.30;;;;;;;;;;4863319;29;20547;-75
2022/04/28 02:14:55;;;;;;;12.30;8.17;;;;;;;;;;4862823;29;20226;-75
2022/04/28 02:17:21;;;;;;;12.95;9.20;;;;;;;;;;4862606;29;20466;-75
2022/04/28 02:19:47;;;;;;;12.07;8.65;;;;;;;;;;4861887;29;20601;-75
2022/04/28 02:22:14;;;;;;;11.95;7.57;;;;;;;;;;4861732;29;20183;-75
2022/04/28 02:24:40;;;;;;;12.05;8.38;;;;;;;;;;4862694;29;20229;-75
2022/04/28 02:27:06;;;;;;;12.02;7.70;;;;;;;;;;4862840;29;20351;-75
2022/04/28 02:29:32;;;;;;;9.95;7.80;;;;;;;;;;4862890;29;20200;-75
2022/04/28 02:31:58;;;;;;;12.70;7.97;;;;;;;;;;4863043;29;20193;-75
2022/04/28 02:34:24;;;;;;;9.30;8.05;;;;;;;;;;4862481;29;20224;-75
2022/04/28 02:36:50;;;;;;;10.00;6.47;;;;;;;;;;4862608;29;20198;-75
2022/04/28 02:39:19;;;;;;;13.50;9.10;;;;;;;;;;4862827;29;20439;-75
2022/04/28 02:41:46;;;;;;;11.65;9.10;;;;;;;;;;4862701;29;20183;-76
2022/04/28 02:44:12;;;;;;;13.25;7.28;;;;;;;;;;4862238;29;20203;-75
2022/04/28 02:46:38;;;;;;;13.18;8.82;;;;;;;;;;4862797;29;20188;-74
2022/04/28 02:49:04;;;;;;;12.55;8.63;;;;;;;;;;4862456;29;20194;-75
2022/04/28 02:51:31;;;;;;;11.25;7.78;;;;;;;;;;4862679;29;20238;-75
2022/04/28 02:53:57;;;;;;;11.15;8.25;;;;;;;;;;4862186;29;20214;-75
2022/04/28 02:56:23;;;;;;;13.70;8.88;;;;;;;;;;4862586;29;20714;-75
2022/04/28 02:58:50;;;;;;;14.73;8.93;;;;;;;;;;4862199;29;20249;-74
2022/04/28 03:01:16;;;;;;;15.10;7.85;;;;;;;;;;4862410;29;20206;-74
2022/04/28 03:03:42;;;;;;;9.77;8.18;;;;;;;;;;4861794;29;20216;-75
2022/04/28 03:11:41;;;;;;;13.23;8.85;;;;;;;;;;4862170;29;20571;-75
2022/04/28 03:14:07;;;;;;;10.77;7.85;;;;;;;;;;4860317;29;20209;-76
2022/04/28 03:16:33;;;;;;;13.98;8.23;;;;;;;;;;4862127;29;20651;-75
2022/04/28 03:18:59;;;;;;;14.40;7.88;;;;;;;;;;4861844;29;20210;-75
2022/04/28 03:21:25;;;;;;;14.45;8.43;;;;;;;;;;4861525;29;20279;-75
2022/04/28 03:23:51;;;;;;;15.85;10.25;;;;;;;;;;4861713;29;20201;-75
2022/04/28 03:26:17;;;;;;;12.63;8.30;;;;;;;;;;4861993;29;20601;-75
2022/04/28 03:28:43;;;;;;;11.38;8.48;;;;;;;;;;4861740;29;20822;-75
2022/04/28 03:31:09;;;;;;;13.03;8.63;;;;;;;;;;4861911;29;20251;-75
2022/04/28 03:33:35;;;;;;;13.27;8.97;;;;;;;;;;4860292;29;20843;-74
2022/04/28 03:36:01;;;;;;;16.60;8.93;;;;;;;;;;4861772;29;20476;-75
2022/04/28 03:38:27;;;;;;;13.25;9.18;;;;;;;;;;4861579;29;20474;-75
2022/04/28 03:40:53;;;;;;;16.67;11.50;;;;;;;;;;4861587;29;20665;-75
2022/04/28 03:43:19;;;;;;;17.90;10.02;;;;;;;;;;4861239;29;20296;-75
2022/04/28 03:45:45;;;;;;;16.88;9.02;;;;;;;;;;4861614;29;20187;-74
2022/04/28 03:48:11;;;;;;;13.90;9.85;;;;;;;;;;4861613;29;20703;-74
2022/04/28 03:50:38;;;;;;;16.77;9.68;;;;;;;;;;4861556;29;20288;-75
2022/04/28 03:53:04;;;;;;;17.02;11.00;;;;;;;;;;4861084;29;20186;-75
2022/04/28 03:55:30;;;;;;;12.40;9.40;;;;;;;;;;4861554;29;20558;-75
2022/04/28 03:57:57;;;;;;;17.70;10.52;;;;;;;;;;4861416;29;20230;-75
2022/04/28 04:00:25;;;;;;;18.27;10.02;;;;;;;;;;4861139;29;20222;-76
2022/04/28 04:02:51;;;;;;;19.60;11.55;;;;;;;;;;4861186;29;20181;-75
2022/04/28 04:05:17;;;;;;;15.13;10.63;;;;;;;;;;4860996;29;20576;-74
2022/04/28 04:07:43;;;;;;;20.52;10.00;;;;;;;;;;4861151;29;20428;-74
2022/04/28 04:10:10;;;;;;;14.05;10.40;;;;;;;;;;4861042;29;20205;-76
2022/04/28 04:12:36;;;;;;;17.10;10.45;;;;;;;;;;4861100;29;20214;-75
2022/04/28 04:15:02;;;;;;;17.10;9.45;;;;;;;;;;4861098;29;20276;-75
2022/04/28 04:17:28;;;;;;;14.80;10.15;;;;;;;;;;4860958;29;20242;-75
2022/04/28 04:19:54;;;;;;;15.77;10.05;;;;;;;;;;4860987;29;20222;-74
2022/04/28 04:22:20;;;;;;;14.07;10.00;;;;;;;;;;4861001;29;20206;-75
2022/04/28 04:24:46;;;;;;;19.30;10.70;;;;;;;;;;4860578;29;20198;-74
2022/04/28 04:27:14;;;;;;;17.27;9.55;;;;;;;;;;4861140;29;20475;-75
2022/04/28 04:29:40;;;;;;;16.08;10.48;;;;;;;;;;4860738;29;20216;-75
2022/04/28 04:32:20;;;;;;;19.55;9.57;;;;;;;;;;4860749;29;20521;-75
2022/04/28 04:34:47;;;;;;;18.27;10.65;;;;;;;;;;4860713;29;20623;-75
2022/04/28 04:37:13;;;;;;;17.23;10.18;;;;;;;;;;4859836;29;20713;-75
2022/04/28 04:39:40;;;;;;;15.70;10.63;;;;;;;;;;4860948;29;20200;-75
2022/04/28 04:42:07;;;;;;;13.82;10.70;;;;;;;;;;4861037;29;20190;-75
2022/04/28 04:44:33;;;;;;;14.75;9.85;;;;;;;;;;4860553;29;20563;-75
2022/04/28 04:46:59;;;;;;;17.10;11.90;;;;;;;;;;4860847;29;20272;-74
2022/04/28 04:49:25;;;;;;;18.13;11.52;;;;;;;;;;4859439;29;20722;-75
2022/04/28 04:51:51;;;;;;;17.70;11.63;;;;;;;;;;4859599;29;20186;-74
2022/04/28 04:54:17;;;;;;;19.97;13.60;;;;;;;;;;4859204;29;20285;-75
2022/04/28 04:56:43;;;;;;;16.38;11.18;;;;;;;;;;4860419;29;20419;-75
2022/04/28 04:59:09;;;;;;;21.05;13.35;;;;;;;;;;4860460;29;20177;-74
2022/04/28 05:01:35;;;;;;;19.05;10.77;;;;;;;;;;4860754;29;20187;-75
2022/04/28 05:04:01;;;;;;;19.23;12.27;;;;;;;;;;4859090;29;20686;-75
2022/04/28 05:06:27;;;;;;;15.93;11.52;;;;;;;;;;4860528;29;20279;-75
2022/04/28 05:08:54;;;;;;;21.45;12.63;;;;;;;;;;4860347;29;20201;-75
2022/04/28 05:11:20;;;;;;;16.75;11.77;;;;;;;;;;4860558;29;20302;-75
2022/04/28 05:13:46;;;;;;;23.85;12.65;;;;;;;;;;4860225;29;20207;-75
2022/04/28 05:16:12;;;;;;;19.48;12.27;;;;;;;;;;4860340;29;20201;-75
2022/04/28 05:18:38;;;;;;;20.92;12.80;;;;;;;;;;4860441;29;20212;-75
2022/04/28 05:21:04;;;;;;;15.23;11.88;;;;;;;;;;4860352;29;20271;-75
2022/04/28 05:23:30;;;;;;;28.80;12.80;;;;;;;;;;4860029;29;20245;-74
2022/04/28 05:25:56;;;;;;;19.10;12.35;;;;;;;;;;4859295;29;20191;-75
2022/04/28 05:28:26;;;;;;;19.20;13.23;;;;;;;;;;4860612;29;20245;-75
2022/04/28 05:30:55;;;;;;;18.83;11.80;;;;;;;;;;4859363;29;20577;-76
2022/04/28 05:33:21;;;;;;;18.15;12.75;;;;;;;;;;4859941;29;20223;-74
2022/04/28 05:35:47;;;;;;;19.00;13.33;;;;;;;;;;4860443;29;20648;-75
2022/04/28 05:38:13;;;;;;;19.70;12.88;;;;;;;;;;4860373;29;20468;-74
2022/04/28 05:40:40;;;;;;;18.98;12.75;;;;;;;;;;4860389;29;20178;-75
2022/04/28 05:45:51;;;;;;;22.20;13.82;;;;;;;;;;4862943;29;20202;-75
2022/04/28 05:48:18;;;;;;;18.60;13.32;;;;;;;;;;4863617;29;20198;-74
2022/04/28 05:50:44;;;;;;;17.83;12.85;;;;;;;;;;4862562;29;20190;-75
2022/04/28 05:53:11;;;;;;;18.15;12.35;;;;;;;;;;4863161;29;20564;-75
2022/04/28 05:55:37;;;;;;;28.10;15.13;;;;;;;;;;4863484;29;20265;-75
2022/04/28 05:58:03;;;;;;;21.33;13.07;;;;;;;;;;4863541;29;20207;-75
2022/04/28 06:00:30;;;;;;;20.60;13.80;;;;;;;;;;4863385;29;20189;-74
2022/04/28 06:02:56;;;;;;;22.80;15.35;;;;;;;;;;4861947;29;20193;-75
2022/04/28 06:05:22;;;;;;;20.05;14.55;;;;;;;;;;4863124;29;20199;-74
2022/04/28 06:07:49;;;;;;;18.67;13.07;;;;;;;;;;4863318;29;20266;-75
2022/04/28 06:10:15;;;;;;;27.90;14.23;;;;;;;;;;4863598;29;20194;-75
2022/04/28 06:12:41;;;;;;;20.90;13.95;;;;;;;;;;4863340;29;20198;-75
2022/04/28 06:15:08;;;;;;;21.10;14.68;;;;;;;;;;4862689;29;20225;-75
2022/04/28 06:17:33;;;;;;;21.75;13.80;;;;;;;;;;4862936;29;20289;-75
2022/04/28 06:19:59;;;;;;;21.88;13.65;;;;;;;;;;4863162;29;20187;-76
2022/04/28 06:22:26;;;;;;;19.23;13.37;;;;;;;;;;4863061;29;20190;-75
2022/04/28 06:24:52;;;;;;;18.35;14.25;;;;;;;;;;4861459;29;20965;-75
2022/04/28 06:27:18;;;;;;;21.23;13.50;;;;;;;;;;4862815;29;20217;-75
2022/04/28 06:29:45;;;;;;;23.02;13.48;;;;;;;;;;4861622;29;20570;-75
2022/04/28 06:32:11;;;;;;;20.00;15.05;;;;;;;;;;4862762;29;20256;-75
2022/04/28 06:34:37;;;;;;;17.90;13.55;;;;;;;;;;4862467;29;20208;-75
2022/04/28 06:37:05;;;;;;;22.40;13.57;;;;;;;;;;4862891;29;20308;-75
2022/04/28 06:39:31;;;;;;;21.95;15.07;;;;;;;;;;4862854;29;20428;-76
2022/04/28 06:41:57;;;;;;;22.00;14.77;;;;;;;;;;4862911;29;20563;-75
2022/04/28 06:44:23;;;;;;;19.07;13.83;;;;;;;;;;4862297;29;20207;-75
2022/04/28 06:46:49;;;;;;;20.75;14.45;;;;;;;;;;4862860;29;20430;-75
2022/04/28 06:49:15;;;;;;;17.92;13.75;;;;;;;;;;4861766;29;20183;-75
2022/04/28 06:51:41;;;;;;;19.63;14.40;;;;;;;;;;4861482;29;20205;-75
2022/04/28 06:54:07;;;;;;;19.43;13.50;;;;;;;;;;4862065;29;20446;-75
2022/04/28 06:56:33;;;;;;;17.83;13.73;;;;;;;;;;4862413;29;20448;-74
2022/04/28 06:58:59;;;;;;;25.67;13.73;;;;;;;;;;4862502;29;20487;-75
2022/04/28 07:01:24;;;;;;;26.27;14.80;;;;;;;;;;4862144;29;20890;-74
2022/04/28 07:03:50;;;;;;;21.80;14.20;;;;;;;;;;4861796;29;20224;-75
2022/04/28 07:06:16;;;;;;;18.73;14.00;;;;;;;;;;4862011;29;20957;-75
2022/04/28 07:08:43;;;;;;;15.57;12.80;;;;;;;;;;4862214;29;20193;-75
2022/04/28 07:11:09;;;;;;;22.98;13.45;;;;;;;;;;4862212;29;20971;-75
2022/04/28 07:13:38;;;;;;;18.05;13.40;;;;;;;;;;4861764;29;20208;-75
2022/04/28 07:16:04;;;;;;;20.83;13.90;;;;;;;;;;4862006;29;20259;-75
2022/04/28 07:18:30;;;;;;;22.80;15.75;;;;;;;;;;4861903;29;20584;-75
2022/04/28 07:20:58;;;;;;;20.10;14.70;;;;;;;;;;4862051;29;20181;-75
2022/04/28 07:23:24;;;;;;;18.85;13.85;;;;;;;;;;4860505;29;20433;-75
2022/04/28 07:25:50;;;;;;;20.52;13.48;;;;;;;;;;4860622;29;20189;-75
2022/04/28 07:28:16;;;;;;;20.88;15.25;;;;;;;;;;4861643;29;20187;-75
2022/04/28 07:30:42;;;;;;;24.33;14.20;;;;;;;;;;4861984;29;20195;-75
2022/04/28 07:33:10;;;;;;;20.80;13.93;;;;;;;;;;4861515;29;20220;-75
2022/04/28 07:35:36;;;;;;;20.48;14.65;;;;;;;;;;4862077;29;20198;-75
2022/04/28 07:38:02;;;;;;;19.58;15.52;;;;;;;;;;4860410;29;20645;-75
2022/04/28 07:40:29;;;;;;;21.37;15.47;;;;;;;;;;4861749;29;20325;-75
2022/04/28 07:42:55;;;;;;;22.40;14.88;;;;;;;;;;4861213;29;20863;-76
2022/04/28 07:45:22;;;;;;;23.90;15.47;;;;;;;;;;4861649;29;20268;-75
2022/04/28 07:47:49;;;;;;;21.33;16.05;;;;;;;;;;4861518;29;20410;-75
2022/04/28 07:50:15;;;;;;;21.58;15.82;;;;;;;;;;4861530;29;20201;-74
2022/04/28 07:52:41;;;;;;;22.08;15.70;;;;;;;;;;4861532;29;20180;-75
2022/04/28 07:55:07;;;;;;;22.08;14.93;;;;;;;;;;4861214;29;20204;-74
2022/04/28 07:57:33;;;;;;;26.80;15.75;;;;;;;;;;4861454;29;20741;-75
2022/04/28 07:59:59;;;;;;;21.55;15.32;;;;;;;;;;4860152;29;20189;-75
2022/04/28 08:02:26;;;;;;;22.60;16.70;;;;;;;;;;4861352;29;20272;-74
2022/04/28 08:04:52;;;;;;;21.48;16.38;;;;;;;;;;4859792;29;20264;-75
2022/04/28 08:07:18;;;;;;;20.57;15.73;;;;;;;;;;4861059;29;20188;-75
2022/04/28 08:09:45;;;;;;;19.50;14.57;;;;;;;;;;4861306;29;20458;-75
2022/04/28 08:12:11;;;;;;;22.00;14.80;;;;;;;;;;4859793;29;20803;-75
2022/04/28 08:14:39;;;;;;;20.67;13.93;;;;;;;;;;4860761;29;20508;-75
2022/04/28 08:17:05;;;;;;;24.80;16.40;;;;;;;;;;4861085;29;20447;-75
2022/04/28 08:19:32;;;;;;;16.33;14.07;;;;;;;;;;4861098;29;20897;-74
2022/04/28 08:21:58;;;;;;;20.03;14.00;;;;;;;;;;4860034;29;20417;-75
2022/04/28 08:24:25;;;;;;;18.87;15.30;;;;;;;;;;4860589;29;20413;-76
2022/04/28 08:26:52;;;;;;;19.63;15.57;;;;;;;;;;4861017;29;20392;-75
2022/04/28 08:29:18;;;;;;;21.10;16.10;;;;;;;;;;4859854;29;20399;-76
2022/04/28 08:31:45;;;;;;;21.47;15.03;;;;;;;;;;4860972;29;20414;-76
2022/04/28 08:34:11;;;;;;;18.47;13.10;;;;;;;;;;4860501;29;20466;-76
2022/04/28 08:36:38;;;;;;;19.10;14.53;;;;;;;;;;4860909;29;20429;-77
2022/04/28 08:39:04;;;;;;;17.50;15.67;;;;;;;;;;4860814;29;20508;-76
2022/04/28 08:41:32;;;;;;;18.13;14.53;;;;;;;;;;4860878;29;20481;-75
2022/04/28 08:43:59;;;;;;;23.57;13.73;;;;;;;;;;4860548;29;20430;-76
2022/04/28 08:49:12;;;;;;;19.00;14.97;;;;;;;;;;4861148;29;20448;-75
2022/04/28 08:51:38;;;;;;;16.50;13.80;;;;;;;;;;4860962;29;20509;-75
2022/04/28 08:54:05;;;;;;;17.50;14.90;;;;;;;;;;4860495;29;20997;-76
2022/04/28 08:56:31;;;;;;;21.00;15.67;;;;;;;;;;4860712;29;20948;-76
2022/04/28 08:58:57;;;;;;;18.13;14.53;;;;;;;;;;4860600;29;20863;-76
2022/04/28 09:01:24;;;;;;;16.30;14.60;;;;;;;;;;4860487;29;20520;-75
2022/04/28 09:03:50;;;;;;;17.80;15.00;;;;;;;;;;4859125;29;20532;-76
2022/04/28 09:06:17;;;;;;;18.03;13.80;;;;;;;;;;4860576;29;20859;-76
2022/04/28 09:08:44;;;;;;;19.20;14.47;;;;;;;;;;4860521;29;20429;-75
2022/04/28 09:11:20;;;;;;;20.57;15.27;;;;;;;;;;4860757;29;20402;-76
2022/04/28 09:14:14;;;;;;;18.93;13.60;;;;;;;;;;4860303;29;20441;-75
2022/04/28 09:16:41;;;;;;;18.47;14.17;;;;;;;;;;4860362;29;20424;-75
2022/04/28 09:19:07;;;;;;;17.57;14.60;;;;;;;;;;4860567;29;20473;-75
2022/04/28 09:21:34;;;;;;;16.03;14.33;;;;;;;;;;4864107;29;20425;-75
2022/04/28 09:24:00;;;;;;;14.97;12.70;;;;;;;;;;4863739;29;20826;-75
2022/04/28 09:26:27;;;;;;;14.27;12.77;;;;;;;;;;4864061;29;20460;-75
2022/04/28 09:28:54;;;;;;;21.70;13.27;;;;;;;;;;4863944;29;20425;-75
2022/04/28 09:31:19;;;;;;;14.60;13.00;;;;;;;;;;4863754;29;20423;-75
2022/04/28 09:33:47;;;;;;;14.10;12.60;;;;;;;;;;4863483;29;20834;-75
2022/04/28 09:36:14;;;;;;;14.70;12.63;;;;;;;;;;4864010;29;20927;-75
2022/04/28 09:38:40;;;;;;;15.90;12.80;;;;;;;;;;4863868;29;20475;-76
2022/04/28 09:43:59;;;;;;;13.80;12.37;;;;;;;;;;4881251;29;20436;-75
2022/04/28 09:46:25;;;;;;;18.20;16.30;;;;;;;;;;4882298;29;20417;-75
2022/04/28 09:48:52;;;;;;;15.53;11.50;;;;;;;;;;4882123;29;20419;-75
2022/04/28 09:51:23;;;;;;;19.43;13.90;;;;;;;;;;4882222;29;20452;-75
2022/04/28 09:53:49;;;;;;;13.13;11.80;;;;;;;;;;4881856;29;20452;-75
2022/04/28 09:56:18;;;;;;;14.37;12.87;;;;;;;;;;4865349;29;20484;-75
2022/04/28 09:58:45;;;;;;;13.27;11.97;;;;;;;;;;4882319;29;20498;-75
2022/04/28 10:01:11;;;;;;;14.87;12.30;;;;;;;;;;4882081;29;21133;-75
2022/04/28 10:03:40;;;;;;;16.67;11.97;;;;;;;;;;4881672;29;20432;-74
2022/04/28 10:06:06;;;;;;;14.93;12.33;;;;;;;;;;4881959;29;20444;-75
2022/04/28 10:08:33;;;;;;;13.37;11.07;;;;;;;;;;4881935;29;20761;-75
2022/04/28 10:11:00;;;;;;;14.90;11.90;;;;;;;;;;4864986;29;20810;-75
2022/04/28 10:13:28;;;;;;;13.17;10.93;;;;;;;;;;4864501;29;20491;-75
2022/04/28 10:16:00;;;;;;;14.70;12.40;;;;;;;;;;4881657;29;20425;-75
2022/04/28 10:18:30;;;;;;;16.97;14.50;;;;;;;;;;4881478;29;20527;-75
2022/04/28 10:20:59;;;;;;;13.50;12.20;;;;;;;;;;4864766;29;20421;-75
2022/04/28 10:34:33;;;;;;;13.03;11.53;;;;;;;;;;4863023;29;20533;-75
2022/04/28 10:37:03;;;;;;;13.37;11.97;;;;;;;;;;4862829;29;20428;-75
2022/04/28 10:39:39;;;;;;;11.30;10.30;;;;;;;;;;4862787;29;20500;-75
2022/04/28 10:42:21;;;;;;;13.53;12.10;;;;;;;;;;4862756;29;20937;-75
2022/04/28 10:44:54;;;;;;;12.00;10.90;;;;;;;;;;4862380;29;21013;-75
2022/04/28 10:47:33;;;;;;;13.07;11.83;;;;;;;;;;4862755;29;20500;-75
2022/04/28 10:49:59;;;;;;;12.10;11.00;;;;;;;;;;4862996;29;20477;-75
2022/04/28 10:52:26;;;;;;;12.50;11.23;;;;;;;;;;4862761;29;20434;-75
2022/04/28 10:54:53;;;;;;;13.13;11.47;;;;;;;;;;4845646;29;20453;-76
2022/04/28 10:57:28;;;;;;;13.97;11.63;;;;;;;;;;4862505;29;20461;-76
2022/04/28 10:59:54;;;;;;;13.03;11.67;;;;;;;;;;4862599;29;20417;-75
2022/04/28 11:02:20;;;;;;;15.37;13.77;;;;;;;;;;4862291;29;20418;-75
2022/04/28 11:05:06;;;;;;;17.90;12.83;;;;;;;;;;4861986;29;20437;-76
2022/04/28 11:07:32;;;;;;;14.67;12.70;;;;;;;;;;4855523;29;20445;-76
2022/04/28 11:10:00;;;;;;;14.70;13.30;;;;;;;;;;4862340;29;20441;-75
2022/04/28 11:12:33;;;;;;;14.10;12.60;;;;;;;;;;4862361;29;20428;-75
2022/04/28 11:15:03;;;;;;;14.40;12.90;;;;;;;;;;4845236;29;20441;-75
2022/04/28 11:17:30;;;;;;;15.80;14.00;;;;;;;;;;4862030;29;20518;-76
2022/04/28 11:19:58;;;;;;;14.50;13.10;;;;;;;;;;4862018;29;20450;-75
2022/04/28 11:22:24;;;;;;;15.00;13.50;;;;;;;;;;4862163;29;20777;-75
2022/04/28 11:24:50;;;;;;;14.57;13.03;;;;;;;;;;4861741;29;20444;-75
2022/04/28 11:27:20;;;;;;;15.60;13.87;;;;;;;;;;4861865;29;20424;-76
2022/04/28 11:29:46;;;;;;;14.07;12.60;;;;;;;;;;4861882;29;20852;-75
2022/04/28 11:32:13;;;;;;;13.77;12.30;;;;;;;;;;4861840;29;20425;-75
2022/04/28 11:34:40;;;;;;;19.63;15.50;;;;;;;;;;4861556;29;20438;-75
2022/04/28 11:37:15;;;;;;;14.40;12.50;;;;;;;;;;4861887;29;20410;-76
2022/04/28 11:39:48;;;;;;;15.67;13.87;;;;;;;;;;4862027;29;20918;-75
2022/04/28 11:42:16;;;;;;;21.30;13.40;;;;;;;;;;4861316;29;20473;-76
2022/04/28 11:44:46;;;;;;;16.20;12.60;;;;;;;;;;4861307;29;20491;-75
2022/04/28 11:47:12;;;;;;;12.73;11.40;;;;;;;;;;4861886;29;20738;-77
2022/04/28 11:49:39;;;;;;;15.13;12.13;;;;;;;;;;4861595;29;20425;-75
2022/04/28 11:52:25;;;;;;;14.83;13.03;;;;;;;;;;4861328;29;20483;-75
2022/04/28 11:54:51;;;;;;;14.40;11.67;;;;;;;;;;4861065;29;20429;-76
2022/04/28 11:57:18;;;;;;;17.07;12.70;;;;;;;;;;4861245;29;20479;-76
2022/04/28 11:59:44;;;;;;;14.00;12.33;;;;;;;;;;4861526;29;20436;-76
2022/04/28 12:02:28;;;;;;;15.13;13.73;;;;;;;;;;4861279;29;20410;-75
2022/04/28 12:04:54;;;;;;;17.83;13.20;;;;;;;;;;4860989;29;20441;-75
2022/04/28 12:07:21;;;;;;;18.70;13.43;;;;;;;;;;4861366;29;20417;-76
2022/04/28 12:15:17;;;;;;;17.00;11.80;;;;;;;;;;4861154;29;20499;-76
2022/04/28 12:20:51;;;;;;;13.53;12.10;;;;;;;;;;4861345;29;20810;-76
2022/04/28 12:23:47;;;;;;;13.60;12.30;;;;;;;;;;4860671;29;20433;-75
2022/04/28 12:26:13;;;;;;;14.03;12.10;;;;;;;;;;4840521;29;20424;-76
2022/04/28 12:28:40;;;;;;;15.70;12.33;;;;;;;;;;4861214;29;20429;-75
2022/04/28 12:31:08;;;;;;;16.00;12.77;;;;;;;;;;4860884;29;20437;-75
2022/04/28 12:33:36;;;;;;;15.00;11.30;;;;;;;;;;4860633;29;20547;-76
2022/04/28 12:36:05;;;;;;;16.10;12.90;;;;;;;;;;4860853;29;20758;-77
2022/04/28 12:38:35;;;;;;;14.00;11.70;;;;;;;;;;4867193;29;20913;-76
2022/04/28 12:41:16;;;;;;;16.10;12.20;;;;;;;;;;4849648;29;20486;-76
2022/04/28 12:43:44;;;;;;;15.00;12.10;;;;;;;;;;4863248;29;20468;-76
2022/04/28 12:46:10;;;;;;;13.57;12.00;;;;;;;;;;4878373;29;20447;-77
2022/04/28 12:48:37;;;;;;;15.90;12.07;;;;;;;;;;4879424;29;20424;-76
2022/04/28 12:51:12;;;;;;;13.97;12.37;;;;;;;;;;4879328;29;20424;-76
2022/04/28 12:53:39;;;;;;;15.17;12.30;;;;;;;;;;4879797;29;20439;-76
2022/04/28 12:56:09;;;;;;;15.13;12.83;;;;;;;;;;4883243;29;20421;-77
2022/04/28 12:58:48;;;;;;;16.10;11.90;;;;;;;;;;4883095;29;20446;-75
2022/04/28 13:01:17;;;;;;;19.60;10.80;;;;;;;;;;4882942;29;20448;-76
2022/04/28 13:03:52;;;;;;;15.00;10.63;;;;;;;;;;4882640;29;20846;-76
2022/04/28 13:06:18;;;;;;;17.90;12.60;;;;;;;;;;4882836;29;20471;-76
2022/04/28 13:08:45;;;;;;;13.00;10.70;;;;;;;;;;4882986;29;20464;-76
2022/04/28 13:11:12;;;;;;;17.23;12.93;;;;;;;;;;4883197;29;20475;-76
2022/04/28 13:13:38;;;;;;;14.83;10.93;;;;;;;;;;4882555;29;20510;-75
2022/04/28 13:16:05;;;;;;;13.37;11.57;;;;;;;;;;4882837;29;20421;-75
2022/04/28 13:18:31;;;;;;;13.87;12.40;;;;;;;;;;4882505;29;20487;-76
2022/04/28 13:20:56;;;;;;;12.37;11.17;;;;;;;;;;4882697;29;20408;-76
2022/04/28 13:23:22;;;;;;;12.73;10.10;;;;;;;;;;4882315;29;20436;-75
2022/04/28 13:25:49;;;;;;;11.27;10.13;;;;;;;;;;4882694;29;20445;-75
2022/04/28 13:28:15;;;;;;;15.93;10.43;;;;;;;;;;4865773;29;20398;-75
2022/04/28 13:30:41;;;;;;;14.27;11.17;;;;;;;;;;4882555;29;20510;-74
2022/04/28 13:33:08;;;;;;;11.00;9.57;;;;;;;;;;4882180;29;20432;-75
2022/04/28 13:35:36;;;;;;;16.83;10.37;;;;;;;;;;4882721;29;20419;-75
2022/04/28 13:38:03;;;;;;;16.13;10.13;;;;;;;;;;4882375;29;20459;-75
2022/04/28 13:40:29;;;;;;;11.40;10.20;;;;;;;;;;4865708;29;20439;-75
2022/04/28 13:42:55;;;;;;;17.80;10.30;;;;;;;;;;4865078;29;20431;-75
2022/04/28 13:45:21;;;;;;;13.50;10.50;;;;;;;;;;4882207;29;20424;-75
2022/04/28 13:47:48;;;;;;;13.60;10.33;;;;;;;;;;4882564;29;20783;-74
2022/04/28 13:50:14;;;;;;;13.57;10.20;;;;;;;;;;4881992;29;20417;-75
2022/04/28 13:52:40;;;;;;;15.10;9.53;;;;;;;;;;4882197;29;20433;-75
2022/04/28 13:55:06;;;;;;;11.40;10.30;;;;;;;;;;4849747;29;21033;-74
2022/04/28 13:57:32;;;;;;;13.77;10.60;;;;;;;;;;4882083;29;20479;-74
2022/04/28 13:59:59;;;;;;;12.97;10.80;;;;;;;;;;4871513;29;20967;-77
2022/04/28 14:02:25;;;;;;;12.80;9.60;;;;;;;;;;4863435;29;20538;-77
2022/04/28 14:04:51;;;;;;;13.13;11.00;;;;;;;;;;4862495;29;20524;-76
2022/04/28 14:07:17;;;;;;;11.37;9.37;;;;;;;;;;4846405;29;20524;-77
2022/04/28 14:09:43;;;;;;;14.87;11.37;;;;;;;;;;4862173;29;20425;-77
2022/04/28 14:12:10;;;;;;;11.20;9.17;;;;;;;;;;4863205;29;20421;-76
2022/04/28 14:14:36;;;;;;;11.93;9.30;;;;;;;;;;4862713;29;20440;-77
2022/04/28 14:17:03;;;;;;;12.80;10.80;;;;;;;;;;4861846;29;20421;-76
2022/04/28 14:19:29;;;;;;;9.87;8.83;;;;;;;;;;4862984;29;20414;-76
2022/04/28 14:21:55;;;;;;;13.00;10.00;;;;;;;;;;4863045;29;20421;-77
2022/04/28 14:24:21;;;;;;;10.63;9.30;;;;;;;;;;4862720;29;20980;-76
2022/04/28 14:26:48;;;;;;;14.97;8.90;;;;;;;;;;4863014;29;20504;-76
2022/04/28 14:29:14;;;;;;;12.30;9.97;;;;;;;;;;4862851;29;20797;-77
2022/04/28 14:31:42;;;;;;;14.20;9.53;;;;;;;;;;4862874;29;20432;-76
2022/04/28 14:34:08;;;;;;;11.40;8.60;;;;;;;;;;4862735;29;20460;-76
2022/04/28 14:36:34;;;;;;;15.43;9.07;;;;;;;;;;4863112;29;20907;-77
2022/04/28 14:39:01;;;;;;;13.70;8.40;;;;;;;;;;4862897;29;20497;-76
2022/04/28 14:41:27;;;;;;;11.67;8.50;;;;;;;;;;4862844;29;20422;-76
2022/04/28 14:43:53;;;;;;;10.27;8.57;;;;;;;;;;4861170;29;20433;-77
2022/04/28 14:46:19;;;;;;;9.87;8.47;;;;;;;;;;4862577;29;20414;-76
2022/04/28 14:54:14;;;;;;;13.13;9.17;;;;;;;;;;4862164;29;20954;-76
2022/04/28 14:56:40;;;;;;;9.70;8.73;;;;;;;;;;4862584;29;20417;-75
2022/04/28 14:59:06;;;;;;;12.80;9.07;;;;;;;;;;4845866;29;20448;-76
2022/04/28 15:01:32;;;;;;;9.63;6.93;;;;;;;;;;4862411;29;20462;-77
2022/04/28 15:03:58;;;;;;;11.47;8.53;;;;;;;;;;4862114;29;20512;-77